Latest Weather Observations for Frankston

IDV60801

Issued at 9:52 am EST Monday 19 August 2019 (issued every 10 minutes, with the page automatically refreshed every 10 minutes)

About weather observations | Map of weather stations | Latest weather observations for VIC | Other Formats
Station Details ID: 086371 Name: FRANKSTON AWS Lat: -38.15 Lon: 145.12 Height: 6.0 m
Data from the previous 72 hours. | See also: Recent months at Frankston
Date/Time
EST
Temp
°C
App
Temp
°C
Dew
Point
°C
Rel
Hum
%
Delta-T
°C
Wind Press
QNH
hPa
Press
MSL
hPa
Rain since
9am
mm
Dir  Spd
km/h
Gust
km/h
Spd
kts
Gust
kts
19/09:30am - - - - - WNW 43 50 23 27 - - -
19/09:00am - - - - - WNW 41 50 22 27 - - -
19/08:30am - - - - - WNW 37 48 20 26 - - -
19/08:00am - - - - - WNW 44 54 24 29 - - -
19/07:30am - - - - - WNW 44 56 24 30 - - -
19/07:00am - - - - - WNW 44 54 24 29 - - -
19/06:30am - - - - - W 48 69 26 37 - - -
19/06:24am - - - - - W 48 69 26 37 - - -
19/06:00am - - - - - WNW 44 54 24 29 - - -
19/05:30am - - - - - WNW 46 56 25 30 - - -
19/05:00am - - - - - WNW 46 57 25 31 - - -
19/04:30am - - - - - WNW 39 50 21 27 - - -
19/04:00am - - - - - WNW 43 52 23 28 - - -
19/03:30am - - - - - W 46 57 25 31 - - -
19/03:00am - - - - - WNW 41 50 22 27 - - -
19/02:30am - - - - - WNW 46 54 25 29 - - -
19/02:00am - - - - - WNW 43 54 23 29 - - -
19/01:30am - - - - - WNW 46 57 25 31 - - -
19/01:00am - - - - - WNW 46 57 25 31 - - -
19/12:30am - - - - - WNW 50 61 27 33 - - -
19/12:00am - - - - - WNW 44 54 24 29 - - -
 
Date/Time
EST
Temp
°C
App
Temp
°C
Dew
Point
°C
Rel
Hum
%
Delta-T
°C
Wind Press
QNH
hPa
Press
MSL
hPa
Rain since
9am
mm
Dir  Spd
km/h
Gust
km/h
Spd
kts
Gust
kts
18/11:30pm - - - - - W 39 48 21 26 - - -
18/11:00pm - - - - - WNW 50 57 27 31 - - -
18/10:30pm - - - - - WNW 56 67 30 36 - - -
18/10:00pm - - - - - WNW 54 69 29 37 - - -
18/09:30pm - - - - - W 54 63 29 34 - - -
18/09:13pm - - - - - W 52 70 28 38 - - -
18/09:00pm - - - - - WNW 52 67 28 36 - - -
18/08:39pm - - - - - NW 50 69 27 37 - - -
18/08:30pm - - - - - NW 52 65 28 35 - - -
18/08:00pm - - - - - NW 46 59 25 32 - - -
18/07:52pm - - - - - NNW 41 59 22 32 - - -
18/07:30pm - - - - - N 33 44 18 24 - - -
18/07:00pm - - - - - N 30 37 16 20 - - -
18/06:30pm - - - - - N 32 44 17 24 - - -
18/06:00pm - - - - - NNE 30 41 16 22 - - -
18/05:30pm - - - - - NNE 32 39 17 21 - - -
18/05:00pm - - - - - N 32 39 17 21 - - -
18/04:30pm - - - - - NNE 39 50 21 27 - - -
18/04:14pm - - - - - N 41 50 22 27 - - -
18/04:00pm - - - - - NNW 35 52 19 28 - - -
18/03:57pm - - - - - NNW 37 52 20 28 - - -
18/03:30pm - - - - - NW 28 32 15 17 - - -
18/03:00pm - - - - - WNW 32 35 17 19 - - -
18/02:30pm - - - - - NNW 22 30 12 16 - - -
18/02:00pm - - - - - NNW 26 30 14 16 - - -
18/01:30pm - - - - - NNW 32 37 17 20 - - -
18/01:00pm - - - - - N 35 43 19 23 - - -
18/12:30pm - - - - - NNW 35 46 19 25 - - -
18/12:00pm - - - - - NNW 39 48 21 26 - - -
18/11:30am - - - - - N 32 44 17 24 - - -
18/11:00am - - - - - N 30 35 16 19 - - -
18/10:30am - - - - - NNE 39 54 21 29 - - -
18/10:19am - - - - - NNE 28 48 15 26 - - -
18/10:00am - - - - - NE 24 35 13 19 - - -
18/09:30am - - - - - NE 30 44 16 24 - - -
18/09:14am - - - - - NE 28 46 15 25 - - -
18/09:00am - - - - - NE 24 37 13 20 - - -
18/08:30am - - - - - NNE 33 43 18 23 - - -
18/08:00am - - - - - NNE 26 33 14 18 - - -
18/07:30am - - - - - NNE 26 30 14 16 - - -
18/07:00am - - - - - NE 19 30 10 16 - - -
18/06:30am - - - - - NE 17 26 9 14 - - -
18/06:00am - - - - - NE 22 33 12 18 - - -
18/05:30am - - - - - NNE 19 33 10 18 - - -
18/05:00am - - - - - NE 17 32 9 17 - - -
18/04:30am - - - - - NNE 17 26 9 14 - - -
18/04:00am - - - - - NNE 13 19 7 10 - - -
18/03:30am - - - - - NNE 13 19 7 10 - - -
18/03:00am - - - - - NE 13 19 7 10 - - -
18/02:30am - - - - - NE 11 17 6 9 - - -
18/02:00am - - - - - NE 11 17 6 9 - - -
18/01:30am - - - - - NE 13 22 7 12 - - -
18/01:00am - - - - - NNE 17 22 9 12 - - -
18/12:30am - - - - - NNE 17 24 9 13 - - -
18/12:00am - - - - - NE 17 30 9 16 - - -
 
Date/Time
EST
Temp
°C
App
Temp
°C
Dew
Point
°C
Rel
Hum
%
Delta-T
°C
Wind Press
QNH
hPa
Press
MSL
hPa
Rain since
9am
mm
Dir  Spd
km/h
Gust
km/h
Spd
kts
Gust
kts
17/11:30pm - - - - - NE 17 24 9 13 - - -
17/11:00pm - - - - - ENE 15 24 8 13 - - -
17/10:30pm - - - - - ENE 15 20 8 11 - - -
17/10:00pm - - - - - NE 13 15 7 8 - - -
17/09:30pm - - - - - N 13 19 7 10 - - -
17/09:00pm - - - - - NE 13 15 7 8 - - -
17/08:30pm - - - - - NE 11 13 6 7 - - -
17/08:00pm - - - - - ENE 9 15 5 8 - - -
17/07:30pm - - - - - ENE 11 17 6 9 - - -
17/07:00pm - - - - - ESE 11 15 6 8 - - -
17/06:30pm - - - - - ESE 11 15 6 8 - - -
17/06:00pm - - - - - ESE 9 11 5 6 - - -
17/05:30pm - - - - - E 11 17 6 9 - - -
17/05:00pm - - - - - E 9 15 5 8 - - -
17/04:30pm - - - - - ESE 11 15 6 8 - - -
17/04:00pm - - - - - E 11 20 6 11 - - -
17/03:30pm - - - - - E 11 22 6 12 - - -
17/03:00pm - - - - - E 13 17 7 9 - - -
17/02:30pm - - - - - ESE 13 19 7 10 - - -
17/02:00pm - - - - - E 15 20 8 11 - - -
17/01:30pm - - - - - ESE 11 17 6 9 - - -
17/01:00pm - - - - - SSE 11 19 6 10 - - -
17/12:30pm - - - - - W 13 15 7 8 - - -
17/12:00pm - - - - - WNW 13 15 7 8 - - -
17/11:30am - - - - - NW 13 13 7 7 - - -
17/11:00am - - - - - NW 13 15 7 8 - - -
17/10:30am - - - - - WNW 7 11 4 6 - - -
17/10:00am - - - - - ESE 7 15 4 8 - - -
17/09:30am - - - - - NNE 7 11 4 6 - - -
17/09:00am - - - - - E 2 11 1 6 - - -
17/08:30am - - - - - NNE 7 9 4 5 - - -
17/08:00am - - - - - NE 2 6 1 3 - - -
17/07:30am - - - - - N 7 7 4 4 - - -
17/07:00am - - - - - S 7 11 4 6 - - -
17/06:30am - - - - - S 7 11 4 6 - - -
17/06:00am - - - - - S 7 9 4 5 - - -
17/05:30am - - - - - S 7 9 4 5 - - -
17/05:00am - - - - - S 6 11 3 6 - - -
17/04:30am - - - - - SSE 4 9 2 5 - - -
17/04:00am - - - - - ESE 7 9 4 5 - - -
17/03:30am - - - - - CALM 0 0 0 0 - - -
17/03:00am - - - - - CALM 0 0 0 0 - - -
17/02:30am - - - - - CALM 0 0 0 0 - - -
17/02:00am - - - - - CALM 0 0 0 0 - - -
17/01:30am - - - - - SSW 9 9 5 5 - - -
17/01:00am - - - - - CALM 0 0 0 0 - - -
17/12:30am - - - - - CALM 0 0 0 0 - - -
17/12:00am - - - - - CALM 0 0 0 0 - - -
 
Date/Time
EST
Temp
°C
App
Temp
°C
Dew
Point
°C
Rel
Hum
%
Delta-T
°C
Wind Press
QNH
hPa
Press
MSL
hPa
Rain since
9am
mm
Dir  Spd
km/h
Gust
km/h
Spd
kts
Gust
kts
16/11:30pm - - - - - CALM 0 0 0 0 - - -
16/11:00pm - - - - - CALM 0 0 0 0 - - -
16/10:30pm - - - - - SSW 9 9 5 5 - - -
16/10:00pm - - - - - S 7 11 4 6 - - -
16/09:30pm - - - - - SW 9 11 5 6 - - -
16/09:00pm - - - - - SSW 7 11 4 6 - - -
16/08:30pm - - - - - SW 13 20 7 11 - - -
16/08:00pm - - - - - SW 17 24 9 13 - - -
16/07:30pm - - - - - SW 13 17 7 9 - - -
16/07:00pm - - - - - SW 15 19 8 10 - - -
16/06:30pm - - - - - SW 17 22 9 12 - - -
16/06:00pm - - - - - SW 20 30 11 16 - - -
16/05:30pm - - - - - WSW 28 33 15 18 - - -
16/05:00pm - - - - - WSW 26 32 14 17 - - -
16/04:30pm - - - - - WSW 32 41 17 22 - - -
16/04:00pm - - - - - WSW 32 43 17 23 - - -
16/03:30pm - - - - - WSW 32 41 17 22 - - -
16/03:00pm - - - - - WSW 24 30 13 16 - - -
16/02:30pm - - - - - WSW 24 30 13 16 - - -
16/02:00pm - - - - - W 37 48 20 26 - - -
16/01:30pm - - - - - WNW 33 41 18 22 - - -
16/01:00pm - - - - - W 39 54 21 29 - - -
16/12:55pm - - - - - WNW 35 54 19 29 - - -
16/12:43pm - - - - - NW 37 50 20 27 - - -
16/12:30pm - - - - - NNW 32 39 17 21 - - -
16/12:00pm - - - - - NNW 17 22 9 12 - - -
16/11:30am - - - - - N 28 35 15 19 - - -
16/11:00am - - - - - N 32 39 17 21 - - -
16/10:30am - - - - - N 33 43 18 23 - - -
16/10:00am - - - - - N 28 35 15 19 - - -

Other formats

Comma delimited format used in spreadsheet applications
http://www.bom.gov.au/fwo/IDV60801/IDV60801.94871.axf

JavaScript Object Notation format (JSON) in row-major order
http://www.bom.gov.au/fwo/IDV60801/IDV60801.94871.json

Data quality

Most of these data are generated automatically and are frequently updated. Quality checks on data are not normally performed. It is possible for incorrect values to appear. Refer to information at About Latest Weather Observations and please check the disclaimer before using these data.